Madison, Nebraska
Current Conditions -  °F | °C
As of 9:56 AM on Sunday 23 Nov 2014 (Local Time) from KOFK Reporting Station
Light Rain Light Rain  
Wind Chill:   Ceiling: 7000
Heat Index:   Visibility: 10mi
Dew Point:   Wind: 23mph
Humidity: 82%   Direction: 330°NNW
Pressure: 29.56"   Gusts: 39mph
Location:  41.83°N, 97.46°W
Report Text: KOFK 231556Z AUTO 33020G34KT 10SM -RA FEW019 BKN070 OVC085 06/03 A2956 RMK AO2 PK WND 32034/1553 SLP015 P0000 T00560028
Loading
Personal Weather Stations






























Interactive Weather Map New forecast layout! Learn more

10-Day Weather Forecast

Advertisements
Track Severe Weather on mobile